createdAt,value
2018-08-06T00:00:46.684Z,1022.17
2018-08-06T00:02:13.872Z,1022.16
2018-08-06T00:03:41.554Z,1022.15
2018-08-06T00:05:07.772Z,1022.13
2018-08-06T00:06:35.250Z,1022.14
2018-08-06T00:08:01.539Z,1022.11
2018-08-06T00:09:28.905Z,1022.10
2018-08-06T00:10:56.506Z,1022.12
2018-08-06T00:12:23.914Z,1022.09
2018-08-06T00:13:51.458Z,1022.10
2018-08-06T00:15:18.718Z,1022.12
2018-08-06T00:16:45.627Z,1022.09
2018-08-06T00:18:12.470Z,1022.09
2018-08-06T00:19:40.120Z,1022.07
2018-08-06T00:21:07.714Z,1022.09
2018-08-06T00:22:34.124Z,1022.08
2018-08-06T00:24:01.526Z,1022.07
2018-08-06T00:25:28.620Z,1022.07
2018-08-06T00:26:56.198Z,1022.07
2018-08-06T00:28:23.492Z,1022.07
2018-08-06T00:29:51.136Z,1022.08
2018-08-06T00:31:18.511Z,1022.09
2018-08-06T00:32:46.124Z,1022.06
2018-08-06T00:34:12.839Z,1022.08
2018-08-06T00:35:39.114Z,1022.06
2018-08-06T00:37:05.110Z,1022.05
2018-08-06T00:38:32.537Z,1022.06
2018-08-06T00:39:59.024Z,1022.07
2018-08-06T00:41:24.888Z,1022.05
2018-08-06T00:42:52.317Z,1022.07
2018-08-06T00:44:19.726Z,1022.07
2018-08-06T00:45:46.334Z,1022.06
2018-08-06T00:47:13.097Z,1022.05
2018-08-06T00:48:39.421Z,1022.04
2018-08-06T00:50:06.824Z,1022.04
2018-08-06T00:51:34.416Z,1022.05
2018-08-06T00:53:01.083Z,1022.05
2018-08-06T00:54:28.494Z,1022.08
2018-08-06T00:55:55.887Z,1022.07
2018-08-06T01:08:12.479Z,1022.12
2018-08-06T01:09:38.324Z,1022.12
2018-08-06T01:11:05.527Z,1022.15
2018-08-06T01:12:32.924Z,1022.16
2018-08-06T01:13:59.369Z,1022.14
2018-08-06T01:15:26.638Z,1022.15
2018-08-06T01:18:21.837Z,1022.12
2018-08-06T01:19:49.159Z,1022.11
2018-08-06T01:21:16.585Z,1022.13
2018-08-06T01:22:43.918Z,1022.13
2018-08-06T01:24:10.349Z,1022.14
2018-08-06T01:25:37.976Z,1022.16
2018-08-06T01:27:05.497Z,1022.22
2018-08-06T01:28:31.694Z,1022.22
2018-08-06T02:48:58.849Z,1021.76
2018-08-06T02:50:24.340Z,1021.74
2018-08-06T05:23:22.376Z,1022.11
2018-08-06T05:24:48.926Z,1022.13
2018-08-06T05:26:15.931Z,1022.13
2018-08-06T05:27:42.570Z,1022.16
2018-08-06T05:29:10.020Z,1022.17
2018-08-06T05:30:37.623Z,1022.19
2018-08-06T05:32:05.220Z,1022.19
2018-08-06T05:33:32.693Z,1022.18
2018-08-06T05:35:00.244Z,1022.18
2018-08-06T05:38:04.612Z,1022.22
2018-08-06T05:39:31.603Z,1022.22
2018-08-06T05:48:15.349Z,1022.24
2018-08-06T05:49:41.715Z,1022.27
2018-08-06T05:51:09.276Z,1022.24
2018-08-06T05:52:36.780Z,1022.24
2018-08-06T05:54:04.454Z,1022.20
2018-08-06T05:55:31.491Z,1022.17
2018-08-06T05:56:58.272Z,1022.14
2018-08-06T05:58:25.693Z,1022.10
2018-08-06T05:59:53.324Z,1022.09
2018-08-06T06:01:20.684Z,1022.07
2018-08-06T06:02:47.277Z,1022.04
2018-08-06T06:04:14.698Z,1022.05
2018-08-06T06:05:41.088Z,1022.06
2018-08-06T06:07:08.650Z,1022.04
2018-08-06T06:08:35.247Z,1022.03
2018-08-06T06:10:02.887Z,1022.04
2018-08-06T06:11:30.572Z,1022.00
2018-08-06T06:12:58.054Z,1022.00
2018-08-06T06:14:26.059Z,1022.01
2018-08-06T06:15:52.831Z,1022.04
2018-08-06T06:17:19.920Z,1022.03
2018-08-06T06:18:46.130Z,1022.01
2018-08-06T06:20:13.541Z,1022.03
2018-08-06T06:21:41.267Z,1022.07
2018-08-06T06:23:08.860Z,1022.09
2018-08-06T06:24:36.504Z,1022.11
2018-08-06T06:26:04.274Z,1022.10
2018-08-06T06:27:31.841Z,1022.10
2018-08-06T06:28:59.351Z,1022.13
2018-08-06T06:30:26.962Z,1022.15
2018-08-06T06:31:54.479Z,1022.17
2018-08-06T06:33:22.105Z,1022.16
2018-08-06T06:34:49.626Z,1022.17
2018-08-06T06:36:16.803Z,1022.20
2018-08-06T06:37:44.138Z,1022.22
2018-08-06T06:39:11.168Z,1022.22
2018-08-06T06:40:38.835Z,1022.22
2018-08-06T06:42:05.581Z,1022.21
2018-08-06T06:43:33.039Z,1022.23
2018-08-06T06:45:00.783Z,1022.25
2018-08-06T06:46:28.393Z,1022.23
2018-08-06T06:47:55.781Z,1022.24
2018-08-06T06:49:23.231Z,1022.21
2018-08-06T06:50:49.826Z,1022.19
2018-08-06T06:52:17.540Z,1022.19
2018-08-06T06:53:44.557Z,1022.18
2018-08-06T06:55:12.249Z,1022.16
2018-08-06T06:56:39.834Z,1022.17
2018-08-06T06:58:06.639Z,1022.19
2018-08-06T06:59:33.968Z,1022.19
2018-08-06T07:01:01.761Z,1022.21
2018-08-06T07:02:29.129Z,1022.20
2018-08-06T07:03:56.565Z,1022.14
2018-08-06T07:05:24.195Z,1022.12
2018-08-06T07:06:50.818Z,1022.11
2018-08-06T07:08:17.972Z,1022.09
2018-08-06T07:09:45.112Z,1022.09
2018-08-06T07:11:12.614Z,1022.08
2018-08-06T07:12:39.716Z,1022.09
2018-08-06T07:14:07.300Z,1022.11
2018-08-06T07:15:34.821Z,1022.09
2018-08-06T07:17:02.373Z,1022.14
2018-08-06T07:18:29.988Z,1022.12
2018-08-06T07:19:57.480Z,1022.14
2018-08-06T07:21:25.093Z,1022.13
2018-08-06T07:22:52.548Z,1022.10
2018-08-06T07:24:20.116Z,1022.07
2018-08-06T07:25:47.409Z,1022.10
2018-08-06T07:27:14.977Z,1022.10
2018-08-06T07:28:42.082Z,1022.10
2018-08-06T07:30:08.888Z,1022.09
2018-08-06T07:31:36.529Z,1022.07
2018-08-06T07:33:04.073Z,1022.04
2018-08-06T07:34:30.722Z,1022.02
2018-08-06T07:35:58.215Z,1022.05
2018-08-06T07:37:25.625Z,1022.04
2018-08-06T07:38:53.064Z,1022.04
2018-08-06T07:40:20.634Z,1022.03
2018-08-06T07:41:48.193Z,1022.01
2018-08-06T07:43:15.889Z,1022.00
2018-08-06T07:44:42.824Z,1022.00
2018-08-06T07:46:10.392Z,1021.99
2018-08-06T07:47:37.888Z,1022.00
2018-08-06T07:49:04.772Z,1022.00
2018-08-06T07:50:32.273Z,1022.00
2018-08-06T07:51:59.763Z,1021.99
2018-08-06T07:53:27.388Z,1022.02
2018-08-06T07:54:54.899Z,1021.96
2018-08-06T07:56:22.560Z,1021.95
2018-08-06T07:57:49.228Z,1021.95
2018-08-06T07:59:16.596Z,1021.93
2018-08-06T08:00:43.884Z,1021.91
2018-08-06T08:02:11.475Z,1021.90
2018-08-06T08:03:39.042Z,1021.88
2018-08-06T08:05:06.584Z,1021.91
2018-08-06T08:06:33.789Z,1021.88
2018-08-06T08:08:00.949Z,1021.88
2018-08-06T08:09:28.652Z,1021.90
2018-08-06T08:10:56.324Z,1021.88
2018-08-06T08:12:23.692Z,1021.94
2018-08-06T08:13:51.254Z,1021.93
2018-08-06T08:15:18.296Z,1021.91
2018-08-06T08:16:45.566Z,1021.91
2018-08-06T08:18:13.138Z,1021.96
2018-08-06T08:19:40.900Z,1021.91
2018-08-06T08:21:07.177Z,1021.89
2018-08-06T08:22:34.669Z,1021.88
2018-08-06T08:24:02.221Z,1021.88
2018-08-06T08:25:28.838Z,1021.84
2018-08-06T08:26:56.722Z,1021.83
2018-08-06T08:28:23.168Z,1021.83
2018-08-06T08:29:50.967Z,1021.79
2018-08-06T08:31:18.530Z,1021.82
2018-08-06T08:32:45.762Z,1021.76
2018-08-06T08:34:13.166Z,1021.77
2018-08-06T08:35:40.568Z,1021.76
2018-08-06T08:37:08.016Z,1021.75
2018-08-06T08:38:35.514Z,1021.69
2018-08-06T08:40:02.226Z,1021.69
2018-08-06T08:41:29.725Z,1021.65
2018-08-06T08:42:57.267Z,1021.63
2018-08-06T08:44:24.780Z,1021.64
2018-08-06T08:45:52.330Z,1021.62
2018-08-06T08:47:18.905Z,1021.66
2018-08-06T08:48:46.238Z,1021.65
2018-08-06T08:50:13.332Z,1021.66
2018-08-06T08:51:40.936Z,1021.61
2018-08-06T08:53:08.466Z,1021.62
2018-08-06T08:54:34.898Z,1021.64
2018-08-06T08:56:02.466Z,1021.61
2018-08-06T08:57:30.076Z,1021.62
2018-08-06T08:58:57.703Z,1021.65
2018-08-06T09:00:25.173Z,1021.63
2018-08-06T09:01:52.591Z,1021.58
2018-08-06T09:03:20.199Z,1021.61
2018-08-06T09:04:46.886Z,1021.60
2018-08-06T09:06:14.084Z,1021.57
2018-08-06T09:07:41.719Z,1021.57
2018-08-06T09:09:09.360Z,1021.54
2018-08-06T09:10:36.934Z,1021.53
2018-08-06T09:12:04.528Z,1021.51
2018-08-06T09:13:32.179Z,1021.49
2018-08-06T09:14:59.758Z,1021.49
2018-08-06T09:16:26.222Z,1021.46
2018-08-06T09:17:53.583Z,1021.43
2018-08-06T09:19:21.108Z,1021.42
2018-08-06T09:20:48.709Z,1021.42
2018-08-06T09:22:16.362Z,1021.42
2018-08-06T09:23:43.888Z,1021.43
2018-08-06T09:25:11.432Z,1021.41
2018-08-06T09:26:39.026Z,1021.36
2018-08-06T09:28:06.708Z,1021.35
2018-08-06T09:29:34.414Z,1021.37
2018-08-06T09:31:01.894Z,1021.34
2018-08-06T09:32:29.512Z,1021.33
2018-08-06T09:33:57.286Z,1021.31
2018-08-06T09:35:24.871Z,1021.30
2018-08-06T09:36:52.421Z,1021.23
2018-08-06T09:38:19.989Z,1021.21
2018-08-06T09:39:47.640Z,1021.20
2018-08-06T09:41:15.284Z,1021.18
2018-08-06T09:42:42.766Z,1021.18
2018-08-06T09:44:10.248Z,1021.22
2018-08-06T09:45:37.478Z,1021.18
2018-08-06T09:47:05.062Z,1021.17
2018-08-06T09:48:32.712Z,1021.12
2018-08-06T09:50:00.331Z,1021.09
2018-08-06T09:51:27.759Z,1021.07
2018-08-06T09:52:55.267Z,1021.04
2018-08-06T09:54:22.885Z,1021.07
2018-08-06T09:55:50.446Z,1021.09
2018-08-06T09:57:18.097Z,1021.07
2018-08-06T09:58:45.613Z,1021.09
2018-08-06T10:00:12.784Z,1021.06
2018-08-06T10:01:40.417Z,1021.07
2018-08-06T10:03:08.029Z,1020.99
2018-08-06T10:04:35.423Z,1021.02
2018-08-06T10:06:03.178Z,1020.99
2018-08-06T10:07:30.701Z,1021.00
2018-08-06T10:08:58.216Z,1020.99
2018-08-06T10:10:25.704Z,1021.00
2018-08-06T10:11:53.436Z,1020.98
2018-08-06T10:13:20.338Z,1020.95
2018-08-06T10:14:47.783Z,1020.90
2018-08-06T10:16:15.326Z,1020.90
2018-08-06T10:17:42.778Z,1020.86
2018-08-06T10:19:09.404Z,1020.89
2018-08-06T10:20:35.646Z,1020.88
2018-08-06T10:22:03.038Z,1020.86
2018-08-06T10:23:30.725Z,1020.86
2018-08-06T10:24:58.275Z,1020.83
2018-08-06T10:26:25.895Z,1020.84
2018-08-06T10:27:53.424Z,1020.80
2018-08-06T10:29:21.094Z,1020.78
2018-08-06T10:30:47.545Z,1020.76
2018-08-06T10:32:15.015Z,1020.74
2018-08-06T10:33:42.616Z,1020.72
2018-08-06T10:35:09.053Z,1020.68
2018-08-06T10:36:35.523Z,1020.65
2018-08-06T10:38:03.282Z,1020.59
2018-08-06T10:39:29.911Z,1020.59
2018-08-06T10:40:57.664Z,1020.60
2018-08-06T10:42:25.309Z,1020.58
2018-08-06T10:43:52.912Z,1020.52
2018-08-06T10:45:20.606Z,1020.53
2018-08-06T10:46:48.237Z,1020.52
2018-08-06T10:48:15.871Z,1020.51
2018-08-06T10:49:42.908Z,1020.52
2018-08-06T10:51:10.575Z,1020.52
2018-08-06T10:52:38.205Z,1020.47
2018-08-06T10:54:04.771Z,1020.48
2018-08-06T10:55:31.208Z,1020.46
2018-08-06T10:56:58.958Z,1020.48
2018-08-06T10:58:26.514Z,1020.47
2018-08-06T10:59:54.131Z,1020.47
2018-08-06T11:01:21.901Z,1020.49
2018-08-06T11:02:48.750Z,1020.43
2018-08-06T11:04:16.408Z,1020.37
2018-08-06T11:05:43.795Z,1020.35
2018-08-06T11:07:11.463Z,1020.36
2018-08-06T11:08:39.078Z,1020.33
2018-08-06T11:10:06.709Z,1020.34
2018-08-06T11:11:34.452Z,1020.35
2018-08-06T11:13:02.177Z,1020.31
2018-08-06T11:14:29.834Z,1020.33
2018-08-06T11:15:57.581Z,1020.29
2018-08-06T11:17:25.070Z,1020.24
2018-08-06T11:18:52.652Z,1020.25
2018-08-06T11:20:20.450Z,1020.21
2018-08-06T11:21:47.780Z,1020.19
2018-08-06T11:23:15.272Z,1020.16
2018-08-06T11:24:42.670Z,1020.16
2018-08-06T11:26:10.670Z,1020.11
2018-08-06T11:27:38.319Z,1020.10
2018-08-06T11:29:05.772Z,1020.09
2018-08-06T11:30:33.453Z,1020.03
2018-08-06T11:32:01.342Z,1019.99
2018-08-06T11:33:28.794Z,1019.98
2018-08-06T11:34:56.508Z,1019.97
2018-08-06T11:36:24.135Z,1019.91
2018-08-06T11:37:51.853Z,1019.92
2018-08-06T11:39:19.482Z,1019.92
2018-08-06T11:40:47.037Z,1019.91
2018-08-06T11:42:14.769Z,1019.86
2018-08-06T11:43:42.250Z,1019.83
2018-08-06T11:45:09.902Z,1019.83
2018-08-06T11:46:37.587Z,1019.84
2018-08-06T11:48:05.206Z,1019.80
2018-08-06T11:49:32.911Z,1019.77
2018-08-06T11:51:00.463Z,1019.75
2018-08-06T11:52:27.913Z,1019.72
2018-08-06T11:53:55.831Z,1019.70
2018-08-06T11:55:23.461Z,1019.69
2018-08-06T11:56:50.924Z,1019.71
2018-08-06T11:58:18.202Z,1019.70
2018-08-06T11:59:45.319Z,1019.67
2018-08-06T12:01:12.863Z,1019.66
2018-08-06T12:02:40.377Z,1019.63
2018-08-06T12:04:08.030Z,1019.60
2018-08-06T12:05:35.231Z,1019.60
2018-08-06T12:07:02.494Z,1019.55
2018-08-06T12:08:30.179Z,1019.52
2018-08-06T12:09:57.939Z,1019.50
2018-08-06T12:11:25.626Z,1019.55
2018-08-06T12:12:53.397Z,1019.51
2018-08-06T12:14:20.994Z,1019.47
2018-08-06T12:15:48.637Z,1019.45
2018-08-06T12:17:16.445Z,1019.44
2018-08-06T12:18:44.014Z,1019.39
2018-08-06T12:20:11.595Z,1019.35
2018-08-06T12:21:39.129Z,1019.35
2018-08-06T12:23:06.865Z,1019.32
2018-08-06T12:24:34.602Z,1019.26
2018-08-06T12:26:01.910Z,1019.25
2018-08-06T12:27:29.537Z,1019.27
2018-08-06T12:28:57.289Z,1019.21
2018-08-06T12:30:25.029Z,1019.24
2018-08-06T12:31:52.730Z,1019.25
2018-08-06T12:33:20.526Z,1019.24
2018-08-06T12:34:48.111Z,1019.20
2018-08-06T12:36:14.967Z,1019.24
2018-08-06T12:37:42.416Z,1019.23
2018-08-06T12:39:10.204Z,1019.21
2018-08-06T12:40:37.888Z,1019.21
2018-08-06T12:42:05.643Z,1019.18
2018-08-06T12:43:33.160Z,1019.15
2018-08-06T12:45:00.854Z,1019.13
2018-08-06T12:46:28.574Z,1019.12
2018-08-06T12:47:56.127Z,1019.09
2018-08-06T12:49:23.728Z,1019.11
2018-08-06T12:50:51.451Z,1019.01
2018-08-06T12:52:19.201Z,1019.10
2018-08-06T12:53:46.784Z,1019.12
2018-08-06T12:55:14.330Z,1019.10
2018-08-06T12:56:41.833Z,1019.04
2018-08-06T12:58:09.438Z,1019.01
2018-08-06T12:59:37.139Z,1019.00
2018-08-06T13:01:04.797Z,1019.01
2018-08-06T13:02:32.353Z,1018.97
2018-08-06T13:04:00.220Z,1018.98
2018-08-06T13:05:27.646Z,1018.97
2018-08-06T13:06:55.345Z,1018.93
2018-08-06T13:08:23.049Z,1018.90
2018-08-06T13:09:50.524Z,1018.86
2018-08-06T13:11:18.162Z,1018.83
2018-08-06T13:12:45.822Z,1018.83
2018-08-06T13:14:13.475Z,1018.83
2018-08-06T13:15:40.463Z,1018.82
2018-08-06T13:17:07.531Z,1018.80
2018-08-06T13:18:35.311Z,1018.78
2018-08-06T13:20:02.970Z,1018.80
2018-08-06T13:21:30.686Z,1018.77
2018-08-06T13:22:58.434Z,1018.74
2018-08-06T13:24:25.112Z,1018.73
2018-08-06T13:25:52.736Z,1018.71
2018-08-06T13:27:19.323Z,1018.67
2018-08-06T13:28:47.168Z,1018.67
2018-08-06T13:30:14.688Z,1018.65
2018-08-06T13:31:41.532Z,1018.62
2018-08-06T13:33:09.202Z,1018.65
2018-08-06T13:34:36.743Z,1018.62
2018-08-06T13:36:03.753Z,1018.63
2018-08-06T13:37:30.927Z,1018.60
2018-08-06T13:38:58.635Z,1018.58
2018-08-06T13:40:26.126Z,1018.57
2018-08-06T13:41:53.125Z,1018.57
2018-08-06T13:43:20.612Z,1018.60
2018-08-06T13:44:48.330Z,1018.59
2018-08-06T13:46:15.971Z,1018.59
2018-08-06T13:47:43.600Z,1018.57
2018-08-06T13:49:11.115Z,1018.59
2018-08-06T13:50:38.958Z,1018.58
2018-08-06T13:52:06.625Z,1018.57
2018-08-06T13:53:34.352Z,1018.53
2018-08-06T13:55:01.386Z,1018.51
2018-08-06T13:56:29.102Z,1018.51
2018-08-06T13:57:56.107Z,1018.49
2018-08-06T13:59:24.066Z,1018.52
2018-08-06T14:00:51.481Z,1018.48
2018-08-06T14:02:19.150Z,1018.47
2018-08-06T14:03:46.601Z,1018.45
2018-08-06T14:05:14.314Z,1018.44
2018-08-06T14:06:42.008Z,1018.40
2018-08-06T14:08:09.604Z,1018.39
2018-08-06T14:09:37.223Z,1018.44
2018-08-06T14:11:04.439Z,1018.36
2018-08-06T14:12:32.194Z,1018.37
2018-08-06T14:13:59.114Z,1018.31
2018-08-06T14:15:26.847Z,1018.35
2018-08-06T14:16:54.135Z,1018.31
2018-08-06T14:18:21.168Z,1018.32
2018-08-06T14:19:48.781Z,1018.31
2018-08-06T14:21:15.886Z,1018.28
2018-08-06T14:22:43.539Z,1018.27
2018-08-06T14:24:10.388Z,1018.24
2018-08-06T14:25:38.044Z,1018.24
2018-08-06T14:27:05.760Z,1018.22
2018-08-06T14:28:33.410Z,1018.20
2018-08-06T14:30:00.904Z,1018.22
2018-08-06T14:31:28.650Z,1018.17
2018-08-06T14:32:56.367Z,1018.15
2018-08-06T14:34:24.146Z,1018.17
2018-08-06T14:35:51.659Z,1018.17
2018-08-06T14:37:19.326Z,1018.19
2018-08-06T14:38:46.390Z,1018.14
2018-08-06T14:40:14.034Z,1018.15
2018-08-06T14:41:41.750Z,1018.11
2018-08-06T14:43:09.392Z,1018.10
2018-08-06T14:44:37.010Z,1018.10
2018-08-06T14:46:04.800Z,1018.08
2018-08-06T14:47:31.946Z,1018.08
2018-08-06T14:48:59.165Z,1018.10
2018-08-06T14:50:26.832Z,1018.08
2018-08-06T14:51:53.727Z,1018.10
2018-08-06T14:53:21.521Z,1018.10
2018-08-06T14:54:48.511Z,1018.08
2018-08-06T14:56:16.292Z,1018.08
2018-08-06T14:57:43.559Z,1018.08
2018-08-06T14:59:11.318Z,1018.09
2018-08-06T15:00:38.954Z,1018.04
2018-08-06T15:02:06.760Z,1018.00
2018-08-06T15:03:34.494Z,1017.99
2018-08-06T15:05:02.186Z,1017.99
2018-08-06T15:06:29.881Z,1017.96
2018-08-06T15:07:57.545Z,1017.91
2018-08-06T15:09:25.155Z,1017.88
2018-08-06T15:10:52.132Z,1017.92
2018-08-06T15:12:19.569Z,1017.95
2018-08-06T15:13:47.223Z,1017.93
2018-08-06T15:15:14.868Z,1017.90
2018-08-06T15:16:42.129Z,1017.88
2018-08-06T15:18:09.874Z,1017.90
2018-08-06T15:19:37.587Z,1017.91
2018-08-06T15:21:05.172Z,1017.87
2018-08-06T15:22:32.947Z,1017.89
2018-08-06T15:24:00.415Z,1017.85
2018-08-06T15:25:28.301Z,1017.83
2018-08-06T15:26:55.896Z,1017.85
2018-08-06T15:28:23.677Z,1017.79
2018-08-06T15:29:51.101Z,1017.77
2018-08-06T15:31:18.716Z,1017.73
2018-08-06T15:32:46.061Z,1017.71
2018-08-06T15:34:13.548Z,1017.72
2018-08-06T15:35:41.078Z,1017.74
2018-08-06T15:37:08.047Z,1017.74
2018-08-06T15:38:35.657Z,1017.72
2018-08-06T15:40:03.352Z,1017.72
2018-08-06T15:41:30.979Z,1017.69
2018-08-06T15:42:58.531Z,1017.67
2018-08-06T15:44:26.181Z,1017.63
2018-08-06T15:45:53.822Z,1017.60
2018-08-06T15:47:20.742Z,1017.57
2018-08-06T15:48:48.367Z,1017.54
2018-08-06T15:50:16.017Z,1017.57
2018-08-06T15:51:43.274Z,1017.55
2018-08-06T15:53:10.425Z,1017.52
2018-08-06T15:54:37.521Z,1017.50
2018-08-06T15:56:05.224Z,1017.54
2018-08-06T15:57:32.987Z,1017.52
2018-08-06T15:59:00.623Z,1017.51
2018-08-06T16:00:28.097Z,1017.47
2018-08-06T16:01:55.787Z,1017.47
2018-08-06T16:03:23.544Z,1017.47
2018-08-06T16:04:50.980Z,1017.45
2018-08-06T16:06:18.686Z,1017.45
2018-08-06T16:07:45.790Z,1017.42
2018-08-06T16:09:13.531Z,1017.38
2018-08-06T16:10:41.196Z,1017.38
2018-08-06T16:12:08.906Z,1017.35
2018-08-06T16:13:36.453Z,1017.33
2018-08-06T16:15:04.068Z,1017.33
2018-08-06T16:16:31.693Z,1017.36
2018-08-06T16:17:59.423Z,1017.36
2018-08-06T16:19:27.124Z,1017.36
2018-08-06T16:20:54.818Z,1017.35
2018-08-06T16:22:22.465Z,1017.35
2018-08-06T16:23:50.111Z,1017.31
2018-08-06T16:25:17.844Z,1017.30
2018-08-06T16:26:45.411Z,1017.26
2018-08-06T16:28:12.934Z,1017.25
2018-08-06T16:29:40.581Z,1017.23
2018-08-06T16:31:08.306Z,1017.20
2018-08-06T16:32:35.355Z,1017.24
2018-08-06T16:34:02.991Z,1017.22
2018-08-06T16:35:30.641Z,1017.19
2018-08-06T16:36:57.797Z,1017.16
2018-08-06T16:38:25.461Z,1017.16
2018-08-06T16:39:52.722Z,1017.17
2018-08-06T16:41:20.311Z,1017.15
2018-08-06T16:42:47.701Z,1017.14
2018-08-06T16:44:15.234Z,1017.13
2018-08-06T16:45:42.669Z,1017.14
2018-08-06T16:47:10.349Z,1017.13
2018-08-06T16:48:37.964Z,1017.11
2018-08-06T16:50:05.507Z,1017.09
2018-08-06T16:51:33.029Z,1017.07
2018-08-06T16:53:00.878Z,1017.08
2018-08-06T16:54:28.690Z,1017.07
2018-08-06T16:55:56.038Z,1017.07
2018-08-06T16:57:23.636Z,1017.05
2018-08-06T16:58:51.054Z,1017.01
2018-08-06T17:00:18.607Z,1017.02
2018-08-06T17:01:46.320Z,1017.01
2018-08-06T17:03:13.480Z,1017.00
2018-08-06T17:04:40.875Z,1017.00
2018-08-06T17:06:08.627Z,1016.99
2018-08-06T17:07:35.454Z,1017.00
2018-08-06T17:09:03.060Z,1016.99
2018-08-06T17:10:30.551Z,1016.99
2018-08-06T17:11:58.162Z,1016.99
2018-08-06T17:13:25.673Z,1016.97
2018-08-06T17:14:53.113Z,1016.98
2018-08-06T17:16:20.895Z,1016.97
2018-08-06T17:17:48.486Z,1016.97
2018-08-06T17:19:15.994Z,1016.99
2018-08-06T17:20:43.486Z,1016.98
2018-08-06T17:22:11.121Z,1016.98
2018-08-06T17:23:38.828Z,1016.97
2018-08-06T17:25:06.344Z,1016.95
2018-08-06T17:26:34.034Z,1016.95
2018-08-06T17:28:01.721Z,1016.95
2018-08-06T17:29:29.459Z,1016.97
2018-08-06T17:30:57.077Z,1016.96
2018-08-06T17:32:24.846Z,1016.96
2018-08-06T17:33:52.425Z,1016.94
2018-08-06T17:35:20.165Z,1016.94
2018-08-06T17:36:47.595Z,1016.97
2018-08-06T17:38:15.012Z,1016.96
2018-08-06T17:39:42.039Z,1017.01
2018-08-06T17:41:09.744Z,1016.99
2018-08-06T17:42:36.338Z,1016.98
2018-08-06T17:44:03.373Z,1016.98
2018-08-06T17:45:31.038Z,1017.00
2018-08-06T17:46:58.713Z,1016.99
2018-08-06T17:48:26.232Z,1016.99
2018-08-06T17:49:53.861Z,1016.97
2018-08-06T17:51:20.803Z,1016.96
2018-08-06T17:52:48.289Z,1016.97
2018-08-06T17:54:16.081Z,1016.96
2018-08-06T17:55:43.302Z,1016.96
2018-08-06T17:57:11.043Z,1016.97
2018-08-06T17:58:37.755Z,1016.93
2018-08-06T18:00:04.538Z,1016.90
2018-08-06T18:01:32.203Z,1016.88
2018-08-06T18:02:59.809Z,1016.87
2018-08-06T18:04:27.392Z,1016.88
2018-08-06T18:05:54.475Z,1016.91
2018-08-06T18:07:22.166Z,1016.90
2018-08-06T18:08:49.891Z,1016.91
2018-08-06T18:10:17.365Z,1016.91
2018-08-06T18:11:44.970Z,1016.89
2018-08-06T18:13:12.472Z,1016.88
2018-08-06T18:14:40.038Z,1016.85
2018-08-06T18:16:07.362Z,1016.83
2018-08-06T18:17:34.933Z,1016.82
2018-08-06T18:19:02.184Z,1016.84
2018-08-06T18:20:29.769Z,1016.83
2018-08-06T18:21:57.438Z,1016.85
2018-08-06T18:23:24.941Z,1016.85
2018-08-06T18:24:52.577Z,1016.87
2018-08-06T18:26:20.129Z,1016.90
2018-08-06T18:27:47.562Z,1016.90
2018-08-06T18:29:15.200Z,1016.94
2018-08-06T18:30:42.615Z,1016.96
2018-08-06T18:32:10.340Z,1016.99
2018-08-06T18:33:38.052Z,1017.00
2018-08-06T18:35:05.710Z,1016.99
2018-08-06T18:36:33.494Z,1016.98
2018-08-06T18:38:00.888Z,1016.96
2018-08-06T18:39:28.667Z,1016.99
2018-08-06T18:40:55.711Z,1017.03
2018-08-06T18:42:23.452Z,1017.04
2018-08-06T18:43:51.075Z,1017.06
2018-08-06T18:45:18.424Z,1017.08
2018-08-06T18:46:46.096Z,1017.11
2018-08-06T18:48:13.355Z,1017.09
2018-08-06T18:49:40.895Z,1017.11
2018-08-06T18:51:08.597Z,1017.12
2018-08-06T18:52:36.324Z,1017.14
2018-08-06T18:54:04.094Z,1017.16
2018-08-06T18:55:31.608Z,1017.16
2018-08-06T18:56:59.295Z,1017.16
2018-08-06T18:58:26.511Z,1017.17
2018-08-06T18:59:54.253Z,1017.18
2018-08-06T19:01:21.839Z,1017.17
2018-08-06T19:02:49.463Z,1017.18
2018-08-06T19:04:17.034Z,1017.16
2018-08-06T19:05:44.597Z,1017.17
2018-08-06T19:07:12.199Z,1017.15
2018-08-06T19:08:39.881Z,1017.17
2018-08-06T19:10:08.737Z,1017.15
2018-08-06T19:11:35.170Z,1017.14
2018-08-06T19:13:02.815Z,1017.17
2018-08-06T19:14:29.455Z,1017.17
2018-08-06T19:15:57.198Z,1017.17
2018-08-06T19:17:24.754Z,1017.18
2018-08-06T19:18:51.658Z,1017.18
2018-08-06T19:20:19.222Z,1017.17
2018-08-06T19:21:45.965Z,1017.18
2018-08-06T19:23:12.603Z,1017.18
2018-08-06T19:24:40.318Z,1017.19
2018-08-06T19:26:07.852Z,1017.20
2018-08-06T19:27:34.449Z,1017.20
2018-08-06T19:29:02.084Z,1017.20
2018-08-06T19:30:29.722Z,1017.22
2018-08-06T19:31:57.347Z,1017.20
2018-08-06T19:33:24.986Z,1017.20
2018-08-06T19:34:51.563Z,1017.23
2018-08-06T19:36:18.554Z,1017.23
2018-08-06T19:37:46.112Z,1017.23
2018-08-06T19:39:10.614Z,1017.23
2018-08-06T19:40:41.263Z,1017.23
2018-08-06T19:42:08.249Z,1017.26
2018-08-06T19:43:35.712Z,1017.27
2018-08-06T19:45:03.316Z,1017.26
2018-08-06T19:46:30.757Z,1017.28
2018-08-06T19:47:57.750Z,1017.26
2018-08-06T19:49:24.452Z,1017.26
2018-08-06T19:50:51.878Z,1017.24
2018-08-06T19:52:19.478Z,1017.24
2018-08-06T19:53:47.014Z,1017.24
2018-08-06T19:55:13.795Z,1017.23
2018-08-06T19:56:41.249Z,1017.22
2018-08-06T19:58:08.924Z,1017.21
2018-08-06T19:59:36.085Z,1017.18
2018-08-06T20:01:03.651Z,1017.18
2018-08-06T20:02:30.557Z,1017.17
2018-08-06T20:03:58.123Z,1017.18
2018-08-06T20:05:24.836Z,1017.21
2018-08-06T20:06:52.436Z,1017.21
2018-08-06T20:08:20.121Z,1017.22
2018-08-06T20:09:47.522Z,1017.24
2018-08-06T20:11:15.120Z,1017.25
2018-08-06T20:12:42.226Z,1017.25
2018-08-06T20:14:09.757Z,1017.25
2018-08-06T20:15:37.381Z,1017.23
2018-08-06T20:17:05.002Z,1017.23
2018-08-06T20:18:31.843Z,1017.23
2018-08-06T20:19:59.307Z,1017.25
2018-08-06T20:21:26.905Z,1017.25
2018-08-06T20:22:54.609Z,1017.25
2018-08-06T20:24:21.183Z,1017.26
2018-08-06T20:25:48.373Z,1017.25
2018-08-06T20:27:15.877Z,1017.25
2018-08-06T20:28:43.424Z,1017.25
2018-08-06T20:30:10.302Z,1017.24
2018-08-06T20:31:37.910Z,1017.25
2018-08-06T20:33:05.421Z,1017.23
2018-08-06T20:34:33.026Z,1017.22
2018-08-06T20:36:00.626Z,1017.22
2018-08-06T20:37:28.235Z,1017.21
2018-08-06T20:38:55.723Z,1017.21
2018-08-06T20:40:23.332Z,1017.21
2018-08-06T20:41:50.879Z,1017.21
2018-08-06T20:43:18.352Z,1017.21
2018-08-06T20:44:45.941Z,1017.20
2018-08-06T20:46:13.185Z,1017.18
2018-08-06T20:47:40.843Z,1017.19
2018-08-06T20:49:08.427Z,1017.16
2018-08-06T20:50:36.007Z,1017.17
2018-08-06T20:52:03.568Z,1017.20
2018-08-06T20:53:30.598Z,1017.21
2018-08-06T20:54:58.186Z,1017.21
2018-08-06T20:56:25.639Z,1017.22
2018-08-06T20:57:53.145Z,1017.23
2018-08-06T20:59:19.908Z,1017.24
2018-08-06T21:00:46.693Z,1017.22
2018-08-06T21:02:14.090Z,1017.23
2018-08-06T21:03:40.967Z,1017.21
2018-08-06T21:05:08.491Z,1017.24
2018-08-06T21:06:35.833Z,1017.24
2018-08-06T21:08:03.302Z,1017.25
2018-08-06T21:09:30.831Z,1017.27
2018-08-06T21:10:58.435Z,1017.30
2018-08-06T21:12:25.331Z,1017.30
2018-08-06T21:13:52.858Z,1017.30
2018-08-06T21:15:20.369Z,1017.32
2018-08-06T21:16:47.768Z,1017.38
2018-08-06T21:18:15.068Z,1017.40
2018-08-06T21:19:41.598Z,1017.42
2018-08-06T21:21:07.958Z,1017.40
2018-08-06T21:22:34.763Z,1017.38
2018-08-06T21:24:02.406Z,1017.36
2018-08-06T21:25:29.960Z,1017.34
2018-08-06T21:26:57.557Z,1017.32
2018-08-06T21:28:25.358Z,1017.31
2018-08-06T21:29:52.869Z,1017.32
2018-08-06T21:31:20.207Z,1017.31
2018-08-06T21:32:47.687Z,1017.34
2018-08-06T21:34:15.276Z,1017.36
2018-08-06T21:35:41.966Z,1017.37
2018-08-06T21:37:09.551Z,1017.38
2018-08-06T21:38:37.074Z,1017.37
2018-08-06T21:40:03.616Z,1017.36
2018-08-06T21:41:31.260Z,1017.33
2018-08-06T21:42:58.713Z,1017.33
2018-08-06T21:44:26.261Z,1017.33
2018-08-06T21:45:53.266Z,1017.31
2018-08-06T21:47:20.795Z,1017.32
2018-08-06T21:48:48.251Z,1017.32